National Weather Service United States Department of Commerce

SFO Marine Stratus Forecast System

Last refreshed: 0728Z Refresh page

Approach Clear

CWSU Oakland Forecast

VAPS

Updated at 13:31Z

Confidence: HIGH


DRIER AIR THAN YESTERDAY. AREA UNDER RIDGING THAT IS BRINGING OFFSHORE FLOW AND AFTERNOON SEA BREEZE. EXPECT CLEAR SKIES AND GOOD VISIBILITY WITH LIGHT WINDS. Thu Mar 5 13:31:12 2015


Details

Model Forecast

Approach clear at N/A GMT

Component models:

COBELN/A
LocalN/A
RegionalN/A
SatelliteN/A

Winter Mode Model quality indicator

Reliability reason:
Model quality: low (cig > 2400 ft, transient synoptic, only one component fcst)

Forecasts return May 15


Probability of clearing by:

17Z 18Z 19Z 20Z
-- -- -- --

Details

WFO Monterey Discussion

Terminal: VFR. Weak late afternoon and early evening seabreeze...otherwise light and variable winds. High confidence.

Approach: Similar to the terminal.

Updated Fri Mar 6 05:30Z


Details

Satellite image
Click to loop

Observations

Time Temp Dew Wind Clouds Vis

SFO

Sky cover icon072055431803CLR  10

SMB

Sky cover icon0726N/AN/A2503CLR  10

Terminal Forecast

KSFO 060527Z 0606/0712 VRB03KT P6SM SKC
      FM062200 28012KT P6SM SKC
      FM070400 28006KT P6SM SKC
					

More